createdAt,value
2022-12-27T00:01:53.703Z,98146.28
2022-12-27T00:04:22.054Z,98141.09
2022-12-27T00:06:50.309Z,98151.56
2022-12-27T00:09:18.561Z,98163.84
2022-12-27T00:11:48.236Z,98166.63
2022-12-27T00:14:16.484Z,98171.78
2022-12-27T00:16:44.790Z,98166.63
2022-12-27T00:19:13.190Z,98159.94
2022-12-27T00:21:41.486Z,98169.69
2022-12-27T00:24:11.088Z,98184.59
2022-12-27T00:26:39.472Z,98176.91
2022-12-27T00:29:09.324Z,98192.00
2022-12-27T00:31:38.893Z,98191.28
2022-12-27T00:34:08.374Z,98188.88
2022-12-27T00:36:36.745Z,98200.34
2022-12-27T00:39:05.977Z,98197.09
2022-12-27T00:41:34.261Z,98187.63
2022-12-27T00:44:02.494Z,98197.63
2022-12-27T00:46:32.115Z,98208.72
2022-12-27T00:49:00.387Z,98218.50
2022-12-27T00:51:28.937Z,98221.53
2022-12-27T00:53:57.635Z,98222.34
2022-12-27T00:56:27.803Z,98236.72
2022-12-27T00:58:56.571Z,98239.16
2022-12-27T01:01:27.240Z,98236.75
2022-12-27T01:03:58.764Z,98245.34
2022-12-27T01:06:32.263Z,98249.22
2022-12-27T01:09:02.237Z,98252.72
2022-12-27T01:11:31.416Z,98266.91
2022-12-27T01:14:02.179Z,98264.78
2022-12-27T01:16:32.095Z,98278.16
2022-12-27T01:19:02.585Z,98282.88
2022-12-27T01:21:31.393Z,98278.56
2022-12-27T01:24:00.129Z,98275.31
2022-12-27T01:26:28.551Z,98281.56
2022-12-27T01:28:56.800Z,98289.50
2022-12-27T01:31:28.800Z,98294.34
2022-12-27T01:33:58.688Z,98304.06
2022-12-27T01:36:30.678Z,98302.53
2022-12-27T01:39:00.905Z,98312.75
2022-12-27T01:41:50.333Z,98318.06
2022-12-27T01:44:57.090Z,98329.13
2022-12-27T01:47:48.012Z,98341.66
2022-12-27T01:50:27.114Z,98342.63
2022-12-27T01:53:08.325Z,98349.72
2022-12-27T01:55:43.203Z,98349.97
2022-12-27T01:58:16.078Z,98348.28
2022-12-27T02:00:47.747Z,98351.03
2022-12-27T02:03:23.299Z,98359.09
2022-12-27T02:05:52.214Z,98349.63
2022-12-27T02:08:35.002Z,98354.34
2022-12-27T02:11:05.192Z,98353.72
2022-12-27T02:13:38.997Z,98358.03
2022-12-27T02:16:14.986Z,98368.03
2022-12-27T02:18:44.038Z,98373.47
2022-12-27T02:21:52.695Z,98372.84
2022-12-27T02:24:45.099Z,98372.22
2022-12-27T02:27:32.463Z,98389.19
2022-12-27T02:30:06.254Z,98390.28
2022-12-27T02:32:41.560Z,98395.81
2022-12-27T02:35:15.989Z,98392.56
2022-12-27T02:37:50.686Z,98406.88
2022-12-27T02:40:41.203Z,98413.34
2022-12-27T02:43:27.513Z,98412.03
2022-12-27T02:46:21.983Z,98422.22
2022-12-27T02:49:24.291Z,98420.88
2022-12-27T02:52:24.023Z,98425.78
2022-12-27T02:55:22.988Z,98423.72
2022-12-27T02:58:02.833Z,98436.56
2022-12-27T03:00:53.936Z,98441.34
2022-12-27T03:03:44.851Z,98456.81
2022-12-27T03:06:44.180Z,98459.06
2022-12-27T03:09:58.536Z,98455.09
2022-12-27T03:13:17.690Z,98467.06
2022-12-27T03:16:00.935Z,98458.56
2022-12-27T03:18:54.670Z,98461.44
2022-12-27T03:21:45.166Z,98462.00
2022-12-27T03:24:35.795Z,98464.97
2022-12-27T03:27:09.991Z,98482.97
2022-12-27T03:29:56.471Z,98487.50
2022-12-27T03:32:43.437Z,98490.34
2022-12-27T03:35:18.923Z,98496.06
2022-12-27T03:38:05.351Z,98510.44
2022-12-27T03:41:02.084Z,98506.13
2022-12-27T03:43:30.897Z,98511.63
2022-12-27T03:46:23.986Z,98511.22
2022-12-27T03:49:07.859Z,98527.16
2022-12-27T03:51:41.870Z,98538.88
2022-12-27T03:54:17.981Z,98530.66
2022-12-27T03:56:46.247Z,98544.69
2022-12-27T03:59:14.584Z,98555.34
2022-12-27T04:01:42.916Z,98551.00
2022-12-27T04:04:11.268Z,98545.84
2022-12-27T04:06:40.831Z,98561.25
2022-12-27T04:09:28.417Z,98556.09
2022-12-27T04:12:14.344Z,98563.47
2022-12-27T04:15:00.118Z,98569.06
2022-12-27T04:17:46.282Z,98576.97
2022-12-27T04:20:32.084Z,98583.19
2022-12-27T04:23:19.404Z,98589.34
2022-12-27T04:26:05.037Z,98589.53
2022-12-27T04:28:50.627Z,98588.78
2022-12-27T04:31:36.820Z,98600.41
2022-12-27T04:34:22.677Z,98614.47
2022-12-27T04:39:22.735Z,98611.31
2022-12-27T04:42:08.432Z,98613.22
2022-12-27T04:44:54.059Z,98625.53
2022-12-27T04:47:41.557Z,98635.47
2022-12-27T04:50:38.589Z,98634.06
2022-12-27T04:53:29.761Z,98636.16
2022-12-27T04:55:59.611Z,98639.84
2022-12-27T04:58:27.956Z,98646.91
2022-12-27T05:01:14.609Z,98649.66
2022-12-27T05:03:43.979Z,98650.72
2022-12-27T05:06:12.607Z,98655.31
2022-12-27T05:08:58.065Z,98669.66
2022-12-27T05:11:45.140Z,98674.38
2022-12-27T05:14:16.247Z,98671.28
2022-12-27T05:16:45.821Z,98676.84
2022-12-27T05:19:15.711Z,98683.16
2022-12-27T05:22:06.781Z,98684.31
2022-12-27T05:24:52.291Z,98686.28
2022-12-27T05:27:21.943Z,98678.78
2022-12-27T05:29:50.136Z,98687.81
2022-12-27T05:32:18.383Z,98693.19
2022-12-27T05:34:46.632Z,98693.38
2022-12-27T05:37:14.910Z,98699.69
2022-12-27T05:39:43.365Z,98688.69
2022-12-27T05:42:11.595Z,98707.97
2022-12-27T05:44:41.207Z,98703.81
2022-12-27T05:47:09.457Z,98706.63
2022-12-27T05:49:37.770Z,98707.69
2022-12-27T05:52:06.320Z,98707.03
2022-12-27T05:54:34.638Z,98709.03
2022-12-27T05:57:02.893Z,98710.03
2022-12-27T05:59:31.114Z,98709.41
2022-12-27T06:02:01.224Z,98712.13
2022-12-27T06:04:29.719Z,98713.22
2022-12-27T06:06:59.246Z,98724.78
2022-12-27T06:09:27.653Z,98717.94
2022-12-27T06:11:55.944Z,98717.19
2022-12-27T06:14:24.395Z,98712.09
2022-12-27T06:16:52.657Z,98715.78
2022-12-27T06:19:22.397Z,98720.19
2022-12-27T06:21:50.672Z,98724.72
2022-12-27T06:24:18.964Z,98714.38
2022-12-27T06:26:47.234Z,98722.44
2022-12-27T06:29:15.687Z,98726.84
2022-12-27T06:31:43.977Z,98722.53
2022-12-27T06:34:12.494Z,98733.16
2022-12-27T06:36:42.336Z,98731.53
2022-12-27T06:39:10.990Z,98744.78
2022-12-27T06:41:39.243Z,98750.22
2022-12-27T06:44:07.495Z,98746.88
2022-12-27T06:46:35.747Z,98750.59
2022-12-27T06:49:04.087Z,98751.63
2022-12-27T06:51:32.349Z,98756.13
2022-12-27T06:54:01.966Z,98756.31
2022-12-27T06:56:30.211Z,98766.09
2022-12-27T06:58:58.487Z,98761.81
2022-12-27T07:01:29.093Z,98761.19
2022-12-27T07:03:59.891Z,98771.88
2022-12-27T07:06:30.572Z,98772.91
2022-12-27T07:09:01.265Z,98783.59
2022-12-27T07:11:29.740Z,98780.22
2022-12-27T07:13:57.976Z,98789.03
2022-12-27T07:16:29.172Z,98791.84
2022-12-27T07:18:59.595Z,98797.19
2022-12-27T07:21:30.239Z,98800.78
2022-12-27T07:23:58.573Z,98809.72
2022-12-27T07:26:30.809Z,98797.59
2022-12-27T07:29:01.205Z,98809.97
2022-12-27T07:31:33.541Z,98809.38
2022-12-27T07:34:04.176Z,98812.09
2022-12-27T07:36:36.849Z,98815.75
2022-12-27T07:39:06.054Z,98818.47
2022-12-27T07:41:36.693Z,98811.59
2022-12-27T07:44:06.203Z,98813.47
2022-12-27T07:46:35.517Z,98809.16
2022-12-27T07:49:03.801Z,98799.91
2022-12-27T07:51:32.098Z,98805.44
2022-12-27T07:54:00.404Z,98797.53
2022-12-27T07:56:30.307Z,98802.19
2022-12-27T07:59:02.725Z,98804.03
2022-12-27T08:02:02.748Z,98806.84
2022-12-27T08:04:31.410Z,98812.19
2022-12-27T08:07:04.655Z,98808.91
2022-12-27T08:09:37.944Z,98807.88
2022-12-27T08:12:07.432Z,98805.25
2022-12-27T08:14:37.340Z,98814.97
2022-12-27T08:17:12.212Z,98817.59
2022-12-27T08:19:40.498Z,98824.81
2022-12-27T08:22:09.906Z,98825.66
2022-12-27T08:24:40.897Z,98826.44
2022-12-27T08:27:09.468Z,98836.16
2022-12-27T08:29:39.387Z,98834.31
2022-12-27T08:32:07.665Z,98834.06
2022-12-27T08:34:35.914Z,98833.91
2022-12-27T08:37:04.193Z,98829.16
2022-12-27T08:39:32.470Z,98829.16
2022-12-27T08:42:00.718Z,98832.44
2022-12-27T08:44:29.405Z,98832.97
2022-12-27T08:46:59.526Z,98836.16
2022-12-27T08:49:27.779Z,98831.50
2022-12-27T08:51:56.043Z,98826.88
2022-12-27T08:54:24.581Z,98822.16
2022-12-27T08:56:52.867Z,98828.03
2022-12-27T08:59:21.099Z,98834.75
2022-12-27T09:01:49.445Z,98843.25
2022-12-27T09:04:19.124Z,98843.84
2022-12-27T09:06:47.479Z,98840.00
2022-12-27T09:09:16.011Z,98839.66
2022-12-27T09:11:44.254Z,98842.09
2022-12-27T09:14:12.599Z,98844.47
2022-12-27T09:16:40.871Z,98850.38
2022-12-27T09:19:09.140Z,98851.94
2022-12-27T09:21:44.018Z,98859.66
2022-12-27T09:24:12.885Z,98853.53
2022-12-27T09:26:41.865Z,98865.38
2022-12-27T09:29:10.141Z,98861.75
2022-12-27T09:31:38.400Z,98873.78
2022-12-27T09:34:06.656Z,98871.91
2022-12-27T09:36:34.905Z,98869.84
2022-12-27T09:39:04.516Z,98867.81
2022-12-27T09:44:44.618Z,98859.00
2022-12-27T09:47:18.737Z,98861.56
2022-12-27T09:49:52.553Z,98850.75
2022-12-27T09:52:27.907Z,98844.19
2022-12-27T09:55:06.339Z,98835.56
2022-12-27T09:57:39.117Z,98830.56
2022-12-27T10:00:16.335Z,98823.72
2022-12-27T10:02:45.737Z,98821.91
2022-12-27T10:05:23.509Z,98814.25
2022-12-27T10:08:07.510Z,98828.34
2022-12-27T10:10:45.167Z,98827.59
2022-12-27T10:13:31.009Z,98828.53
2022-12-27T10:16:13.639Z,98827.72
2022-12-27T10:18:53.715Z,98821.50
2022-12-27T10:21:24.615Z,98811.03
2022-12-27T10:23:58.488Z,98794.22
2022-12-27T10:26:28.733Z,98804.88
2022-12-27T10:29:02.119Z,98802.41
2022-12-27T10:31:32.407Z,98794.66
2022-12-27T10:34:05.061Z,98792.41
2022-12-27T10:36:38.006Z,98788.22
2022-12-27T10:39:17.505Z,98786.88
2022-12-27T10:41:57.258Z,98785.53
2022-12-27T10:44:25.991Z,98781.66
2022-12-27T10:46:56.948Z,98780.41
2022-12-27T10:49:31.199Z,98783.66
2022-12-27T10:52:08.400Z,98774.56
2022-12-27T10:54:37.303Z,98774.28
2022-12-27T10:57:26.866Z,98781.34
2022-12-27T11:00:17.803Z,98774.69
2022-12-27T11:02:53.318Z,98778.63
2022-12-27T11:05:24.738Z,98782.34
2022-12-27T11:07:53.391Z,98772.28
2022-12-27T11:10:24.818Z,98783.38
2022-12-27T11:13:01.732Z,98777.94
2022-12-27T11:15:32.507Z,98779.63
2022-12-27T11:18:05.749Z,98776.97
2022-12-27T11:20:39.737Z,98772.03
2022-12-27T11:23:16.480Z,98780.66
2022-12-27T11:25:55.544Z,98773.91
2022-12-27T11:28:35.261Z,98771.91
2022-12-27T11:31:08.066Z,98763.16
2022-12-27T11:33:41.097Z,98755.69
2022-12-27T11:36:11.251Z,98755.34
2022-12-27T11:38:43.315Z,98757.06
2022-12-27T11:41:16.648Z,98751.41
2022-12-27T11:43:52.092Z,98753.16
2022-12-27T11:46:29.113Z,98747.56
2022-12-27T11:48:59.875Z,98744.47
2022-12-27T11:51:54.410Z,98733.50
2022-12-27T11:54:56.013Z,98734.13
2022-12-27T11:57:47.672Z,98733.69
2022-12-27T12:00:22.407Z,98731.63
2022-12-27T12:03:36.620Z,98725.25
2022-12-27T12:06:17.224Z,98738.41
2022-12-27T12:09:10.199Z,98740.81
2022-12-27T12:12:04.959Z,98737.72
2022-12-27T12:15:14.603Z,98740.13
2022-12-27T12:18:03.999Z,98738.31
2022-12-27T12:21:10.324Z,98737.09
2022-12-27T12:24:01.363Z,98722.63
2022-12-27T12:26:35.691Z,98729.25
2022-12-27T12:29:37.293Z,98725.41
2022-12-27T12:32:29.716Z,98718.59
2022-12-27T12:35:44.933Z,98720.75
2022-12-27T12:38:23.697Z,98731.00
2022-12-27T12:41:49.072Z,98723.63
2022-12-27T12:44:49.399Z,98712.88
2022-12-27T12:47:45.193Z,98715.06
2022-12-27T12:50:41.606Z,98723.22
2022-12-27T12:53:30.593Z,98719.34
2022-12-27T12:56:19.535Z,98716.91
2022-12-27T12:58:59.279Z,98709.22
2022-12-27T13:01:46.801Z,98708.72
2022-12-27T13:04:37.220Z,98709.19
2022-12-27T13:07:28.295Z,98708.69
2022-12-27T13:10:38.221Z,98700.34
2022-12-27T13:13:15.589Z,98697.22
2022-12-27T13:16:03.901Z,98698.28
2022-12-27T13:18:44.579Z,98689.84
2022-12-27T13:21:27.464Z,98694.28
2022-12-27T13:24:08.356Z,98693.78
2022-12-27T13:26:48.127Z,98701.00
2022-12-27T13:29:43.835Z,98704.94
2022-12-27T13:32:24.738Z,98702.53
2022-12-27T13:35:08.533Z,98705.38
2022-12-27T13:37:48.059Z,98699.69
2022-12-27T13:40:37.383Z,98707.50
2022-12-27T13:43:38.210Z,98707.72
2022-12-27T13:46:26.306Z,98699.38
2022-12-27T13:49:09.045Z,98707.31
2022-12-27T13:51:46.275Z,98703.13
2022-12-27T13:55:07.386Z,98705.97
2022-12-27T13:58:19.555Z,98698.50
2022-12-27T14:00:58.807Z,98710.88
2022-12-27T14:04:10.324Z,98701.44
2022-12-27T14:07:14.988Z,98709.34
2022-12-27T14:10:04.998Z,98711.19
2022-12-27T14:13:00.170Z,98717.41
2022-12-27T14:16:04.727Z,98716.69
2022-12-27T14:19:00.115Z,98713.28
2022-12-27T14:22:04.355Z,98714.25
2022-12-27T14:25:08.947Z,98718.91
2022-12-27T14:28:21.703Z,98718.38
2022-12-27T14:31:41.328Z,98729.91
2022-12-27T14:35:07.821Z,98725.69
2022-12-27T14:38:19.807Z,98726.03
2022-12-27T14:41:43.173Z,98722.00
2022-12-27T14:45:30.530Z,98732.19
2022-12-27T14:48:32.915Z,98729.09
2022-12-27T14:52:00.867Z,98729.31
2022-12-27T14:55:24.825Z,98736.94
2022-12-27T14:58:25.679Z,98740.13
2022-12-27T15:01:11.010Z,98743.19
2022-12-27T15:04:00.658Z,98738.31
2022-12-27T15:07:11.150Z,98755.41
2022-12-27T15:09:49.825Z,98750.53
2022-12-27T15:12:31.444Z,98747.50
2022-12-27T15:15:18.317Z,98748.75
2022-12-27T15:18:07.686Z,98750.09
2022-12-27T15:21:19.350Z,98742.69
2022-12-27T15:23:56.138Z,98744.06
2022-12-27T15:26:34.886Z,98755.13
2022-12-27T15:29:20.324Z,98751.91
2022-12-27T15:32:01.183Z,98745.47
2022-12-27T15:34:56.491Z,98754.75
2022-12-27T15:37:54.570Z,98748.97
2022-12-27T15:40:44.371Z,98748.53
2022-12-27T15:43:36.132Z,98746.31
2022-12-27T15:46:36.979Z,98747.53
2022-12-27T15:49:24.584Z,98744.34
2022-12-27T15:52:02.747Z,98747.28
2022-12-27T15:54:57.768Z,98749.38
2022-12-27T15:58:01.438Z,98741.75
2022-12-27T16:00:34.237Z,98743.66
2022-12-27T16:03:06.717Z,98738.47
2022-12-27T16:05:54.491Z,98739.59
2022-12-27T16:08:40.797Z,98742.41
2022-12-27T16:11:13.107Z,98749.59
2022-12-27T16:14:24.122Z,98746.31
2022-12-27T16:16:56.000Z,98737.84
2022-12-27T16:20:07.089Z,98740.75
2022-12-27T16:22:39.803Z,98737.59
2022-12-27T16:25:34.102Z,98745.78
2022-12-27T16:28:08.040Z,98749.53
2022-12-27T16:30:47.810Z,98749.72
2022-12-27T16:33:38.579Z,98751.78
2022-12-27T16:36:16.855Z,98756.69
2022-12-27T16:38:58.467Z,98754.41
2022-12-27T16:42:00.402Z,98759.22
2022-12-27T16:44:48.102Z,98755.34
2022-12-27T16:47:38.545Z,98760.97
2022-12-27T16:50:49.271Z,98759.56
2022-12-27T16:53:48.884Z,98765.19
2022-12-27T16:56:23.270Z,98767.19
2022-12-27T16:58:52.504Z,98770.72
2022-12-27T17:01:59.305Z,98772.81
2022-12-27T17:04:58.392Z,98760.75
2022-12-27T17:08:01.021Z,98753.13
2022-12-27T17:10:45.285Z,98744.31
2022-12-27T17:13:18.859Z,98743.47
2022-12-27T17:15:54.755Z,98741.69
2022-12-27T17:18:30.320Z,98746.94
2022-12-27T17:21:06.761Z,98742.59
2022-12-27T17:23:41.846Z,98741.78
2022-12-27T17:26:55.501Z,98741.88
2022-12-27T17:29:51.095Z,98736.88
2022-12-27T17:32:35.710Z,98733.56
2022-12-27T17:35:12.915Z,98730.25
2022-12-27T17:37:58.157Z,98727.81
2022-12-27T17:40:34.464Z,98724.53
2022-12-27T17:43:39.439Z,98731.66
2022-12-27T17:46:25.159Z,98725.75
2022-12-27T17:48:56.012Z,98730.16
2022-12-27T17:51:28.798Z,98728.38
2022-12-27T17:54:15.908Z,98733.66
2022-12-27T17:57:04.656Z,98737.09
2022-12-27T17:59:35.316Z,98732.88
2022-12-27T18:02:14.978Z,98732.88
2022-12-27T18:04:49.892Z,98726.75
2022-12-27T18:07:28.099Z,98730.25
2022-12-27T18:09:59.352Z,98726.84
2022-12-27T18:12:30.952Z,98720.75
2022-12-27T18:15:03.472Z,98733.06
2022-12-27T18:17:37.760Z,98736.63
2022-12-27T18:20:35.786Z,98730.50
2022-12-27T18:23:26.366Z,98725.44
2022-12-27T18:26:09.192Z,98717.59
2022-12-27T18:28:38.573Z,98715.91
2022-12-27T18:31:14.708Z,98708.94
2022-12-27T18:33:45.936Z,98709.97
2022-12-27T18:36:22.544Z,98710.16
2022-12-27T18:38:59.105Z,98710.25
2022-12-27T18:41:29.388Z,98708.66
2022-12-27T18:44:01.923Z,98709.66
2022-12-27T18:46:36.868Z,98710.59
2022-12-27T18:49:06.837Z,98708.06
2022-12-27T18:51:38.491Z,98701.19
2022-12-27T18:54:24.332Z,98702.03
2022-12-27T18:56:54.375Z,98698.56
2022-12-27T18:59:26.406Z,98702.97
2022-12-27T19:01:56.898Z,98699.50
2022-12-27T19:04:28.505Z,98697.81
2022-12-27T19:07:10.337Z,98695.19
2022-12-27T19:09:44.681Z,98695.25
2022-12-27T19:12:26.934Z,98690.94
2022-12-27T19:14:55.714Z,98698.84
2022-12-27T19:17:26.784Z,98693.66
2022-12-27T19:19:59.620Z,98688.50
2022-12-27T19:22:36.910Z,98689.31
2022-12-27T19:25:21.556Z,98685.97
2022-12-27T19:28:05.789Z,98677.31
2022-12-27T19:30:38.818Z,98675.63
2022-12-27T19:33:15.651Z,98673.19
2022-12-27T19:35:44.644Z,98670.53
2022-12-27T19:38:20.750Z,98670.63
2022-12-27T19:41:01.330Z,98662.84
2022-12-27T19:43:38.434Z,98665.56
2022-12-27T19:46:06.907Z,98650.66
2022-12-27T19:48:35.322Z,98654.28
2022-12-27T19:51:04.085Z,98649.09
2022-12-27T19:53:38.925Z,98654.34
2022-12-27T19:56:10.233Z,98654.53
2022-12-27T19:58:39.116Z,98652.75
2022-12-27T20:01:07.898Z,98658.09
2022-12-27T20:03:36.227Z,98654.72
2022-12-27T20:06:13.257Z,98658.38
2022-12-27T20:08:51.149Z,98660.22
2022-12-27T20:11:22.773Z,98662.94
2022-12-27T20:13:51.742Z,98654.31
2022-12-27T20:16:21.326Z,98651.78
2022-12-27T20:18:49.704Z,98665.91
2022-12-27T20:21:21.139Z,98658.03
2022-12-27T20:23:49.904Z,98666.00
2022-12-27T20:26:23.302Z,98658.22
2022-12-27T20:28:52.966Z,98660.09
2022-12-27T20:31:22.756Z,98661.00
2022-12-27T20:33:53.112Z,98668.16
2022-12-27T20:36:21.704Z,98665.44
2022-12-27T20:38:50.449Z,98661.09
2022-12-27T20:41:22.974Z,98669.06
2022-12-27T20:43:56.470Z,98667.38
2022-12-27T20:46:25.688Z,98668.22
2022-12-27T20:48:55.630Z,98671.78
2022-12-27T20:51:27.245Z,98663.97
2022-12-27T20:53:58.265Z,98669.31
2022-12-27T20:56:28.388Z,98663.97
2022-12-27T20:58:57.419Z,98664.19
2022-12-27T21:01:27.367Z,98649.34
2022-12-27T21:03:56.854Z,98645.03
2022-12-27T21:06:27.689Z,98646.88
2022-12-27T21:08:57.930Z,98643.50
2022-12-27T21:11:31.274Z,98640.13
2022-12-27T21:14:01.057Z,98644.59
2022-12-27T21:16:32.199Z,98646.41
2022-12-27T21:19:03.431Z,98650.09
2022-12-27T21:21:34.185Z,98647.56
2022-12-27T21:24:03.181Z,98641.56
2022-12-27T21:26:36.997Z,98640.81
2022-12-27T21:29:09.129Z,98648.75
2022-12-27T21:31:38.233Z,98646.22
2022-12-27T21:34:07.122Z,98642.81
2022-12-27T21:36:36.784Z,98640.38
2022-12-27T21:39:05.750Z,98636.22
2022-12-27T21:41:37.696Z,98638.06
2022-12-27T21:44:07.108Z,98633.84
2022-12-27T21:46:37.847Z,98636.56
2022-12-27T21:49:09.262Z,98630.53
2022-12-27T21:51:38.695Z,98630.63
2022-12-27T21:54:07.729Z,98633.34
2022-12-27T21:56:39.147Z,98625.66
2022-12-27T21:59:11.068Z,98622.19
2022-12-27T22:01:51.580Z,98611.16
2022-12-27T22:04:21.798Z,98609.47
2022-12-27T22:06:50.287Z,98611.31
2022-12-27T22:09:19.654Z,98617.59
2022-12-27T22:11:49.691Z,98618.53
2022-12-27T22:14:23.379Z,98619.53
2022-12-27T22:16:53.659Z,98618.78
2022-12-27T22:19:21.935Z,98614.44
2022-12-27T22:21:50.181Z,98623.25
2022-12-27T22:24:19.883Z,98611.09
2022-12-27T22:26:50.371Z,98603.28
2022-12-27T22:29:18.978Z,98604.28
2022-12-27T22:31:47.270Z,98600.84
2022-12-27T22:34:15.527Z,98600.91
2022-12-27T22:36:43.831Z,98601.81
2022-12-27T22:39:12.059Z,98593.22
2022-12-27T22:41:40.332Z,98588.97
2022-12-27T22:44:14.184Z,98594.38
2022-12-27T22:47:25.073Z,98591.84
2022-12-27T22:49:31.672Z,98584.97
2022-12-27T22:51:59.949Z,98580.69
2022-12-27T22:55:04.761Z,98584.22
2022-12-27T22:57:16.323Z,98584.50
2022-12-27T22:59:45.938Z,98588.97
2022-12-27T23:02:14.260Z,98587.28
2022-12-27T23:04:42.663Z,98582.19
2022-12-27T23:07:10.944Z,98588.34
2022-12-27T23:09:43.040Z,98584.97
2022-12-27T23:12:12.329Z,98593.75
2022-12-27T23:14:40.938Z,98581.59
2022-12-27T23:17:10.636Z,98573.88
2022-12-27T23:19:38.858Z,98575.66
2022-12-27T23:22:07.859Z,98562.69
2022-12-27T23:24:36.089Z,98561.88
2022-12-27T23:27:04.430Z,98556.72
2022-12-27T23:29:32.669Z,98554.25
2022-12-27T23:32:00.951Z,98562.94
2022-12-27T23:34:30.632Z,98563.03
2022-12-27T23:36:59.908Z,98572.75
2022-12-27T23:39:28.703Z,98568.50
2022-12-27T23:41:57.076Z,98555.31
2022-12-27T23:44:33.902Z,98547.69
2022-12-27T23:47:05.201Z,98549.50
2022-12-27T23:49:35.589Z,98549.56
2022-12-27T23:52:04.488Z,98546.97
2022-12-27T23:54:32.757Z,98547.13
2022-12-27T23:57:20.171Z,98542.69
2022-12-27T23:59:49.470Z,98554.19
